Terminal Aerodrome Forecast
Issued by NWS St Louis, MO

Home | Current Version | Previous Version | Text Only | Print | Product List | Glossary On
Versions: 1 2 3 4 5 6 7 8 9 10 11 12 13 14 15 16 17 18
000
FTUS43 KLSX 281146
TAFCOU
TAF
KCOU 281146Z 2812/0112 18012G18KT P6SM OVC015
     FM281800 20017G26KT P6SM BKN045
     FM010300 20012G19KT 4SM -SHRA VCTS BKN035CB
     FM010600 26011KT 4SM -SHRA VCTS BKN040CB
     FM010800 29015G23KT P6SM BKN020
     FM011100 29014G23KT P6SM BKN015=

USA.gov is the U.S. government's official web portal to all federal, state and local government web resources and services.